createdAt,value
2023-02-19T00:00:52.696Z,99727.94
2023-02-19T00:03:24.680Z,99728.68
2023-02-19T00:05:58.567Z,99724.04
2023-02-19T00:08:32.105Z,99731.98
2023-02-19T00:11:09.439Z,99728.45
2023-02-19T00:13:48.124Z,99731.79
2023-02-19T00:16:26.989Z,99721.45
2023-02-19T00:19:02.632Z,99715.63
2023-02-19T00:21:34.997Z,99713.59
2023-02-19T00:24:12.524Z,99710.83
2023-02-19T00:26:50.900Z,99709.02
2023-02-19T00:29:25.588Z,99715.59
2023-02-19T00:31:57.472Z,99699.71
2023-02-19T00:34:31.600Z,99704.81
2023-02-19T00:37:07.756Z,99708.69
2023-02-19T00:39:45.470Z,99710.56
2023-02-19T00:42:18.560Z,99703.65
2023-02-19T00:44:52.009Z,99707.02
2023-02-19T00:47:25.594Z,99702.88
2023-02-19T00:49:57.341Z,99703.10
2023-02-19T00:52:29.582Z,99707.12
2023-02-19T00:55:01.857Z,99708.31
2023-02-19T00:57:33.529Z,99707.96
2023-02-19T01:00:06.928Z,99701.55
2023-02-19T01:02:38.564Z,99697.13
2023-02-19T01:05:11.512Z,99690.43
2023-02-19T01:07:43.222Z,99684.17
2023-02-19T01:10:14.874Z,99686.85
2023-02-19T01:12:46.750Z,99683.08
2023-02-19T01:15:18.795Z,99688.45
2023-02-19T01:17:50.538Z,99689.42
2023-02-19T01:20:22.170Z,99692.42
2023-02-19T01:22:55.686Z,99694.02
2023-02-19T01:25:27.635Z,99695.49
2023-02-19T01:28:02.296Z,99696.06
2023-02-19T01:30:39.660Z,99694.48
2023-02-19T01:33:11.939Z,99694.02
2023-02-19T01:35:46.582Z,99693.59
2023-02-19T01:38:20.436Z,99699.47
2023-02-19T01:41:00.002Z,99704.32
2023-02-19T01:43:33.436Z,99695.85
2023-02-19T01:46:05.236Z,99698.72
2023-02-19T01:48:39.148Z,99702.60
2023-02-19T01:51:15.848Z,99706.69
2023-02-19T01:53:51.623Z,99705.11
2023-02-19T01:56:27.993Z,99703.23
2023-02-19T01:59:00.436Z,99705.21
2023-02-19T02:01:32.551Z,99703.46
2023-02-19T02:04:05.686Z,99701.00
2023-02-19T02:06:42.492Z,99702.20
2023-02-19T02:09:31.992Z,99700.67
2023-02-19T02:12:03.720Z,99710.97
2023-02-19T02:14:39.308Z,99714.02
2023-02-19T02:17:18.529Z,99708.86
2023-02-19T02:20:19.576Z,99713.26
2023-02-19T02:22:59.305Z,99709.45
2023-02-19T02:26:02.963Z,99703.90
2023-02-19T02:29:11.082Z,99692.95
2023-02-19T02:31:45.855Z,99691.58
2023-02-19T02:34:19.775Z,99687.83
2023-02-19T02:36:56.016Z,99681.78
2023-02-19T02:39:29.629Z,99679.06
2023-02-19T02:42:19.730Z,99675.16
2023-02-19T02:45:05.221Z,99668.56
2023-02-19T02:47:45.190Z,99668.12
2023-02-19T02:50:21.578Z,99667.20
2023-02-19T02:53:14.476Z,99665.42
2023-02-19T02:55:53.512Z,99668.84
2023-02-19T02:58:26.838Z,99668.38
2023-02-19T03:01:20.299Z,99668.77
2023-02-19T03:03:56.952Z,99671.27
2023-02-19T03:06:31.407Z,99669.69
2023-02-19T03:09:09.588Z,99671.80
2023-02-19T03:12:02.764Z,99674.09
2023-02-19T03:14:58.441Z,99677.84
2023-02-19T03:17:51.060Z,99675.11
2023-02-19T03:20:28.873Z,99680.61
2023-02-19T03:23:02.648Z,99674.41
2023-02-19T03:25:54.002Z,99668.91
2023-02-19T03:28:43.173Z,99665.54
2023-02-19T03:31:20.280Z,99664.15
2023-02-19T03:33:58.688Z,99660.49
2023-02-19T03:36:37.200Z,99658.34
2023-02-19T03:39:13.714Z,99646.63
2023-02-19T03:41:54.332Z,99648.77
2023-02-19T03:44:34.886Z,99645.52
2023-02-19T03:47:13.133Z,99648.52
2023-02-19T03:49:50.293Z,99650.34
2023-02-19T03:52:29.068Z,99640.70
2023-02-19T03:55:05.196Z,99634.23
2023-02-19T03:57:50.306Z,99634.14
2023-02-19T04:00:23.009Z,99634.17
2023-02-19T04:02:59.920Z,99627.98
2023-02-19T04:05:35.275Z,99632.54
2023-02-19T04:08:12.987Z,99631.84
2023-02-19T04:10:49.200Z,99634.88
2023-02-19T04:13:27.616Z,99626.73
2023-02-19T04:16:07.141Z,99627.45
2023-02-19T04:18:43.352Z,99628.89
2023-02-19T04:21:16.636Z,99637.79
2023-02-19T04:23:52.798Z,99621.91
2023-02-19T04:26:26.425Z,99629.61
2023-02-19T04:36:22.379Z,99627.43
2023-02-19T04:38:55.723Z,99629.88
2023-02-19T04:41:28.318Z,99629.91
2023-02-19T04:43:59.848Z,99625.77
2023-02-19T04:46:31.452Z,99629.67
2023-02-19T04:49:04.745Z,99628.72
2023-02-19T04:51:36.600Z,99630.25
2023-02-19T04:54:08.671Z,99625.40
2023-02-19T04:56:41.087Z,99619.26
2023-02-19T04:59:13.325Z,99618.73
2023-02-19T05:01:46.854Z,99623.73
2023-02-19T05:04:19.352Z,99616.58
2023-02-19T05:06:51.642Z,99609.14
2023-02-19T05:09:24.777Z,99603.79
2023-02-19T05:11:58.304Z,99599.86
2023-02-19T05:14:32.989Z,99588.10
2023-02-19T05:17:04.782Z,99597.13
2023-02-19T05:19:37.986Z,99589.36
2023-02-19T05:22:09.734Z,99586.07
2023-02-19T05:24:41.458Z,99577.77
2023-02-19T05:27:13.395Z,99571.87
2023-02-19T05:29:45.368Z,99573.57
2023-02-19T05:32:17.448Z,99576.02
2023-02-19T05:34:51.620Z,99577.33
2023-02-19T05:37:23.594Z,99575.45
2023-02-19T05:39:55.475Z,99572.56
2023-02-19T05:42:29.565Z,99577.71
2023-02-19T05:45:03.741Z,99584.60
2023-02-19T05:47:35.670Z,99588.69
2023-02-19T05:50:08.157Z,99593.94
2023-02-19T05:52:40.124Z,99592.85
2023-02-19T05:55:12.488Z,99587.08
2023-02-19T05:57:46.148Z,99588.99
2023-02-19T06:00:20.748Z,99605.72
2023-02-19T06:02:55.227Z,99606.64
2023-02-19T06:05:28.192Z,99615.13
2023-02-19T06:08:00.042Z,99618.23
2023-02-19T06:10:31.632Z,99616.70
2023-02-19T06:13:05.152Z,99615.80
2023-02-19T06:15:37.626Z,99615.85
2023-02-19T06:18:11.596Z,99611.87
2023-02-19T06:20:46.361Z,99611.07
2023-02-19T06:23:18.076Z,99598.17
2023-02-19T06:25:52.499Z,99601.24
2023-02-19T06:28:24.493Z,99600.30
2023-02-19T06:31:03.939Z,99592.60
2023-02-19T06:33:36.271Z,99597.67
2023-02-19T06:36:09.446Z,99596.98
2023-02-19T06:38:44.960Z,99599.79
2023-02-19T06:41:22.448Z,99602.01
2023-02-19T06:43:56.061Z,99597.23
2023-02-19T06:46:30.742Z,99615.02
2023-02-19T06:49:02.553Z,99624.98
2023-02-19T06:51:34.962Z,99617.52
2023-02-19T06:54:26.458Z,99618.66
2023-02-19T06:56:59.984Z,99626.90
2023-02-19T06:59:33.388Z,99621.27
2023-02-19T07:02:05.280Z,99634.63
2023-02-19T07:04:37.395Z,99631.86
2023-02-19T07:07:15.810Z,99634.77
2023-02-19T07:09:47.799Z,99632.04
2023-02-19T07:12:19.785Z,99621.73
2023-02-19T07:14:52.829Z,99623.04
2023-02-19T07:17:24.745Z,99629.84
2023-02-19T07:19:56.345Z,99630.84
2023-02-19T07:22:29.065Z,99632.88
2023-02-19T07:25:01.853Z,99633.88
2023-02-19T07:27:35.867Z,99635.80
2023-02-19T07:30:09.065Z,99625.31
2023-02-19T07:32:45.922Z,99634.38
2023-02-19T07:35:18.395Z,99636.60
2023-02-19T07:37:50.222Z,99638.48
2023-02-19T07:40:22.543Z,99644.05
2023-02-19T07:42:57.938Z,99642.11
2023-02-19T07:45:30.430Z,99644.36
2023-02-19T07:48:02.659Z,99645.77
2023-02-19T07:50:39.086Z,99641.52
2023-02-19T07:53:12.087Z,99635.90
2023-02-19T07:55:44.194Z,99647.46
2023-02-19T07:58:16.065Z,99646.42
2023-02-19T08:00:48.142Z,99646.70
2023-02-19T08:03:20.742Z,99647.20
2023-02-19T08:05:54.178Z,99646.40
2023-02-19T08:08:29.397Z,99652.64
2023-02-19T08:11:24.769Z,99654.90
2023-02-19T08:13:56.698Z,99651.88
2023-02-19T08:16:42.124Z,99655.61
2023-02-19T08:19:14.986Z,99662.23
2023-02-19T08:21:48.546Z,99664.41
2023-02-19T08:24:20.350Z,99666.33
2023-02-19T08:26:52.123Z,99669.66
2023-02-19T08:29:23.785Z,99670.52
2023-02-19T08:31:55.531Z,99673.58
2023-02-19T08:34:27.581Z,99670.81
2023-02-19T08:37:02.889Z,99665.84
2023-02-19T08:39:36.280Z,99666.83
2023-02-19T08:42:12.543Z,99666.73
2023-02-19T08:44:46.067Z,99667.46
2023-02-19T08:47:18.429Z,99671.58
2023-02-19T08:49:50.582Z,99669.80
2023-02-19T08:52:22.740Z,99668.68
2023-02-19T08:54:54.345Z,99663.64
2023-02-19T08:57:26.839Z,99671.25
2023-02-19T08:59:58.663Z,99673.66
2023-02-19T09:02:31.454Z,99669.80
2023-02-19T09:05:05.896Z,99657.90
2023-02-19T09:07:37.760Z,99661.42
2023-02-19T09:10:12.003Z,99665.14
2023-02-19T09:12:44.428Z,99658.77
2023-02-19T09:15:16.606Z,99662.52
2023-02-19T09:17:52.388Z,99665.08
2023-02-19T09:20:24.635Z,99665.69
2023-02-19T09:23:00.463Z,99668.13
2023-02-19T09:25:34.236Z,99669.16
2023-02-19T09:28:06.636Z,99670.29
2023-02-19T09:30:38.583Z,99668.13
2023-02-19T09:33:11.580Z,99668.39
2023-02-19T09:35:43.738Z,99668.78
2023-02-19T09:38:16.091Z,99672.95
2023-02-19T09:40:48.084Z,99673.89
2023-02-19T09:43:24.116Z,99672.27
2023-02-19T09:46:03.306Z,99674.02
2023-02-19T09:48:35.675Z,99677.95
2023-02-19T09:51:10.484Z,99681.37
2023-02-19T09:53:48.269Z,99685.35
2023-02-19T09:56:25.003Z,99687.05
2023-02-19T09:59:01.283Z,99683.45
2023-02-19T10:01:48.914Z,99686.32
2023-02-19T10:04:27.400Z,99683.15
2023-02-19T10:07:04.630Z,99684.17
2023-02-19T10:09:37.887Z,99689.36
2023-02-19T10:12:26.603Z,99691.77
2023-02-19T10:15:04.132Z,99691.69
2023-02-19T10:17:38.116Z,99693.30
2023-02-19T10:20:19.247Z,99700.94
2023-02-19T10:22:59.899Z,99702.42
2023-02-19T10:25:36.792Z,99707.92
2023-02-19T10:28:16.450Z,99699.98
2023-02-19T10:30:58.040Z,99705.55
2023-02-19T10:33:36.609Z,99709.27
2023-02-19T10:36:31.781Z,99712.57
2023-02-19T10:39:12.351Z,99719.34
2023-02-19T10:41:52.542Z,99715.65
2023-02-19T10:44:40.897Z,99723.95
2023-02-19T10:47:25.408Z,99718.34
2023-02-19T10:50:03.313Z,99717.47
2023-02-19T10:52:46.148Z,99722.79
2023-02-19T10:55:30.840Z,99724.61
2023-02-19T10:58:26.487Z,99725.11
2023-02-19T11:01:17.333Z,99726.62
2023-02-19T11:03:50.437Z,99732.42
2023-02-19T11:06:30.316Z,99731.11
2023-02-19T11:09:04.229Z,99729.35
2023-02-19T11:11:43.060Z,99732.56
2023-02-19T11:14:22.351Z,99728.02
2023-02-19T11:17:13.686Z,99732.13
2023-02-19T11:19:52.982Z,99733.33
2023-02-19T11:22:34.939Z,99733.63
2023-02-19T11:25:09.722Z,99741.86
2023-02-19T11:27:55.567Z,99744.77
2023-02-19T11:30:40.584Z,99748.45
2023-02-19T11:33:27.636Z,99748.08
2023-02-19T11:36:20.145Z,99745.62
2023-02-19T11:39:00.215Z,99751.41
2023-02-19T11:41:52.856Z,99754.13
2023-02-19T11:44:39.794Z,99755.79
2023-02-19T11:47:45.819Z,99756.16
2023-02-19T11:50:26.798Z,99760.15
2023-02-19T11:53:16.182Z,99757.69
2023-02-19T11:56:00.735Z,99757.48
2023-02-19T11:59:00.652Z,99753.02
2023-02-19T12:01:48.800Z,99761.84
2023-02-19T12:05:15.433Z,99761.48
2023-02-19T12:08:18.976Z,99767.05
2023-02-19T12:11:07.473Z,99764.35
2023-02-19T12:13:55.947Z,99768.32
2023-02-19T12:16:50.522Z,99772.48
2023-02-19T12:19:40.641Z,99782.14
2023-02-19T12:22:31.560Z,99783.02
2023-02-19T12:25:37.829Z,99782.30
2023-02-19T12:28:27.394Z,99790.13
2023-02-19T12:34:51.332Z,99798.69
2023-02-19T12:37:40.400Z,99801.17
2023-02-19T12:40:30.355Z,99803.95
2023-02-19T12:43:16.050Z,99802.73
2023-02-19T12:45:58.664Z,99809.23
2023-02-19T12:48:38.736Z,99815.60
2023-02-19T12:51:17.797Z,99814.89
2023-02-19T12:53:58.449Z,99816.70
2023-02-19T12:56:38.569Z,99818.14
2023-02-19T12:59:17.045Z,99816.20
2023-02-19T13:01:55.464Z,99817.90
2023-02-19T13:04:36.639Z,99817.29
2023-02-19T13:07:13.432Z,99817.34
2023-02-19T13:09:51.036Z,99817.79
2023-02-19T13:12:27.555Z,99822.92
2023-02-19T13:15:06.134Z,99824.14
2023-02-19T13:17:45.033Z,99825.91
2023-02-19T13:20:25.240Z,99827.05
2023-02-19T13:23:26.663Z,99822.48
2023-02-19T13:26:25.040Z,99821.73
2023-02-19T13:29:10.925Z,99824.74
2023-02-19T13:32:17.856Z,99830.22
2023-02-19T13:35:01.920Z,99837.98
2023-02-19T13:37:39.856Z,99836.83
2023-02-19T13:40:24.613Z,99837.98
2023-02-19T13:43:00.096Z,99841.00
2023-02-19T13:45:41.206Z,99838.23
2023-02-19T13:48:31.148Z,99838.71
2023-02-19T13:51:37.949Z,99850.48
2023-02-19T13:54:26.206Z,99850.65
2023-02-19T13:57:40.257Z,99859.34
2023-02-19T14:00:54.839Z,99861.05
2023-02-19T14:03:43.272Z,99864.57
2023-02-19T14:06:16.533Z,99868.37
2023-02-19T14:08:58.450Z,99878.14
2023-02-19T14:12:07.588Z,99868.76
2023-02-19T14:14:42.764Z,99881.98
2023-02-19T14:17:42.717Z,99886.52
2023-02-19T14:20:46.337Z,99889.31
2023-02-19T14:23:28.305Z,99889.21
2023-02-19T14:26:05.795Z,99892.94
2023-02-19T14:28:43.927Z,99895.62
2023-02-19T14:31:25.305Z,99901.16
2023-02-19T14:34:03.667Z,99902.13
2023-02-19T14:36:50.016Z,99906.40
2023-02-19T14:39:25.737Z,99906.52
2023-02-19T14:42:03.441Z,99908.09
2023-02-19T14:44:49.753Z,99912.02
2023-02-19T14:47:25.552Z,99911.55
2023-02-19T14:50:01.707Z,99913.30
2023-02-19T14:52:45.127Z,99914.98
2023-02-19T14:55:27.273Z,99914.61
2023-02-19T14:58:03.240Z,99913.90
2023-02-19T15:00:39.576Z,99913.22
2023-02-19T15:03:31.397Z,99919.36
2023-02-19T15:06:20.663Z,99922.71
2023-02-19T15:08:59.285Z,99921.91
2023-02-19T15:11:38.257Z,99925.27
2023-02-19T15:14:21.335Z,99928.54
2023-02-19T15:16:58.670Z,99929.45
2023-02-19T15:19:36.014Z,99941.23
2023-02-19T15:22:10.095Z,99943.87
2023-02-19T15:24:51.095Z,99948.87
2023-02-19T15:27:27.136Z,99951.84
2023-02-19T15:30:02.196Z,99953.35
2023-02-19T15:32:38.412Z,99954.09
2023-02-19T15:35:27.968Z,99954.45
2023-02-19T15:38:01.211Z,99961.05
2023-02-19T15:40:35.889Z,99965.64
2023-02-19T15:43:23.815Z,99961.04
2023-02-19T15:46:02.549Z,99969.56
2023-02-19T15:48:43.742Z,99972.07
2023-02-19T15:51:21.698Z,99985.48
2023-02-19T15:54:01.128Z,99990.07
2023-02-19T15:56:52.347Z,99992.27
2023-02-19T15:59:32.850Z,99997.41
2023-02-19T16:02:06.116Z,100000.03
2023-02-19T16:04:40.713Z,100008.67
2023-02-19T16:07:31.120Z,100017.59
2023-02-19T16:10:24.795Z,100019.88
2023-02-19T16:13:04.424Z,100022.08
2023-02-19T16:15:38.512Z,100022.48
2023-02-19T16:18:18.664Z,100028.23
2023-02-19T16:20:58.015Z,100035.60
2023-02-19T16:23:33.595Z,100042.90
2023-02-19T16:26:09.871Z,100047.81
2023-02-19T16:28:45.598Z,100047.55
2023-02-19T16:31:27.453Z,100052.92
2023-02-19T16:34:29.028Z,100058.98
2023-02-19T16:37:02.760Z,100067.22
2023-02-19T16:39:36.633Z,100070.72
2023-02-19T16:42:30.750Z,100075.27
2023-02-19T16:45:04.702Z,100078.16
2023-02-19T16:47:45.788Z,100079.51
2023-02-19T16:50:22.266Z,100082.64
2023-02-19T16:53:01.415Z,100085.85
2023-02-19T16:55:38.832Z,100085.57
2023-02-19T16:58:14.406Z,100086.69
2023-02-19T17:00:48.539Z,100090.55
2023-02-19T17:03:25.331Z,100090.84
2023-02-19T17:05:59.761Z,100100.98
2023-02-19T17:08:40.291Z,100098.36
2023-02-19T17:11:17.796Z,100104.77
2023-02-19T17:13:51.476Z,100109.12
2023-02-19T17:16:28.141Z,100113.14
2023-02-19T17:19:06.519Z,100112.43
2023-02-19T17:21:40.342Z,100123.10
2023-02-19T17:24:18.893Z,100128.74
2023-02-19T17:26:52.824Z,100136.55
2023-02-19T17:29:34.883Z,100138.50
2023-02-19T17:32:09.438Z,100139.45
2023-02-19T17:34:44.767Z,100138.24
2023-02-19T17:37:23.296Z,100140.41
2023-02-19T17:39:57.643Z,100146.80
2023-02-19T17:42:32.200Z,100154.07
2023-02-19T17:45:07.645Z,100152.31
2023-02-19T17:47:45.646Z,100163.64
2023-02-19T17:50:31.702Z,100166.66
2023-02-19T17:53:05.982Z,100177.80
2023-02-19T17:55:40.949Z,100178.91
2023-02-19T17:58:20.740Z,100190.40
2023-02-19T18:00:54.392Z,100195.41
2023-02-19T18:03:27.691Z,100203.73
2023-02-19T18:06:07.664Z,100206.87
2023-02-19T18:08:43.058Z,100207.31
2023-02-19T18:11:16.505Z,100213.16
2023-02-19T18:13:57.737Z,100211.61
2023-02-19T18:16:34.137Z,100213.80
2023-02-19T18:19:15.420Z,100214.86
2023-02-19T18:21:55.303Z,100217.19
2023-02-19T18:24:28.452Z,100216.22
2023-02-19T18:27:03.453Z,100211.04
2023-02-19T18:29:40.614Z,100212.02
2023-02-19T18:32:16.360Z,100216.80
2023-02-19T18:34:55.271Z,100214.10
2023-02-19T18:37:30.961Z,100217.80
2023-02-19T18:40:20.284Z,100216.09
2023-02-19T18:42:54.639Z,100225.40
2023-02-19T18:45:30.039Z,100228.71
2023-02-19T18:48:04.505Z,100233.10
2023-02-19T18:50:38.954Z,100237.56
2023-02-19T18:53:13.973Z,100239.63
2023-02-19T18:55:48.100Z,100246.14
2023-02-19T18:58:27.569Z,100254.89
2023-02-19T19:01:02.117Z,100261.14
2023-02-19T19:03:39.684Z,100265.63
2023-02-19T19:06:18.104Z,100265.28
2023-02-19T19:08:55.957Z,100276.16
2023-02-19T19:11:36.798Z,100266.79
2023-02-19T19:14:18.655Z,100274.59
2023-02-19T19:16:59.410Z,100286.58
2023-02-19T19:19:35.616Z,100299.93
2023-02-19T19:22:09.281Z,100301.25
2023-02-19T19:24:42.322Z,100306.13
2023-02-19T19:27:18.240Z,100302.32
2023-02-19T19:29:51.454Z,100305.45
2023-02-19T19:32:26.945Z,100303.06
2023-02-19T19:35:01.507Z,100306.89
2023-02-19T19:37:38.321Z,100307.67
2023-02-19T19:40:18.272Z,100308.70
2023-02-19T19:42:55.941Z,100307.80
2023-02-19T19:45:34.046Z,100315.40
2023-02-19T19:48:10.896Z,100319.61
2023-02-19T19:50:45.838Z,100314.48
2023-02-19T19:53:26.747Z,100311.86
2023-02-19T19:56:02.000Z,100311.25
2023-02-19T19:58:37.605Z,100310.98
2023-02-19T20:01:12.312Z,100308.12
2023-02-19T20:03:47.866Z,100307.55
2023-02-19T20:06:29.511Z,100308.13
2023-02-19T20:09:04.965Z,100309.48
2023-02-19T20:11:49.500Z,100307.05
2023-02-19T20:14:33.121Z,100314.91
2023-02-19T20:17:08.944Z,100323.67
2023-02-19T20:19:45.700Z,100326.10
2023-02-19T20:22:24.158Z,100326.35
2023-02-19T20:25:00.345Z,100330.84
2023-02-19T20:27:36.517Z,100335.19
2023-02-19T20:30:13.687Z,100339.81
2023-02-19T20:33:08.216Z,100340.86
2023-02-19T20:35:41.596Z,100348.27
2023-02-19T20:38:19.725Z,100350.20
2023-02-19T20:40:53.232Z,100356.44
2023-02-19T20:43:28.720Z,100361.26
2023-02-19T20:46:10.207Z,100364.26
2023-02-19T20:48:44.455Z,100372.70
2023-02-19T20:51:18.159Z,100377.30
2023-02-19T20:53:53.499Z,100381.64
2023-02-19T20:56:28.934Z,100380.38
2023-02-19T20:59:07.332Z,100381.29
2023-02-19T21:01:40.560Z,100380.99
2023-02-19T21:04:19.057Z,100379.39
2023-02-19T21:06:55.477Z,100380.76
2023-02-19T21:09:35.573Z,100376.89
2023-02-19T21:12:12.823Z,100366.95
2023-02-19T21:14:50.503Z,100374.48
2023-02-19T21:17:25.567Z,100379.24
2023-02-19T21:19:58.134Z,100383.33
2023-02-19T21:22:33.080Z,100382.98
2023-02-19T21:25:14.028Z,100386.34
2023-02-19T21:27:47.199Z,100393.36
2023-02-19T21:30:30.123Z,100402.52
2023-02-19T21:33:02.577Z,100408.20
2023-02-19T21:35:35.133Z,100402.42
2023-02-19T21:38:07.408Z,100402.79
2023-02-19T21:40:43.500Z,100401.02
2023-02-19T21:43:16.380Z,100406.98
2023-02-19T21:45:49.888Z,100404.04
2023-02-19T21:48:23.623Z,100403.33
2023-02-19T21:50:55.801Z,100408.60
2023-02-19T21:53:32.329Z,100403.55
2023-02-19T21:56:04.246Z,100401.80
2023-02-19T21:58:38.083Z,100401.02
2023-02-19T22:01:10.569Z,100396.83
2023-02-19T22:03:42.504Z,100396.45
2023-02-19T22:06:14.488Z,100404.02
2023-02-19T22:08:46.557Z,100407.37
2023-02-19T22:11:18.812Z,100407.75
2023-02-19T22:13:50.957Z,100410.27
2023-02-19T22:16:23.037Z,100409.88
2023-02-19T22:18:56.953Z,100407.90
2023-02-19T22:21:32.829Z,100408.69
2023-02-19T22:24:05.576Z,100405.88
2023-02-19T22:26:39.560Z,100406.30
2023-02-19T22:29:14.800Z,100410.63
2023-02-19T22:31:46.946Z,100411.52
2023-02-19T22:34:18.881Z,100414.61
2023-02-19T22:36:50.779Z,100417.87
2023-02-19T22:39:24.981Z,100421.41
2023-02-19T22:41:56.856Z,100425.96
2023-02-19T22:44:31.048Z,100425.61
2023-02-19T22:47:04.136Z,100424.52
2023-02-19T22:49:39.072Z,100429.54
2023-02-19T22:52:12.287Z,100425.67
2023-02-19T22:54:45.405Z,100427.89
2023-02-19T22:57:17.280Z,100428.52
2023-02-19T22:59:49.801Z,100434.70
2023-02-19T23:02:21.521Z,100437.44
2023-02-19T23:04:54.295Z,100432.07
2023-02-19T23:07:26.263Z,100421.20
2023-02-19T23:09:57.940Z,100420.95
2023-02-19T23:12:29.886Z,100421.90
2023-02-19T23:15:01.810Z,100426.83
2023-02-19T23:17:34.729Z,100422.04
2023-02-19T23:20:07.578Z,100420.88
2023-02-19T23:22:40.696Z,100422.60
2023-02-19T23:25:12.636Z,100427.33
2023-02-19T23:27:45.079Z,100421.57
2023-02-19T23:30:18.799Z,100416.10
2023-02-19T23:32:50.830Z,100416.40
2023-02-19T23:35:23.926Z,100419.50
2023-02-19T23:37:56.745Z,100415.25
2023-02-19T23:40:29.113Z,100410.94
2023-02-19T23:43:01.110Z,100413.77
2023-02-19T23:45:33.016Z,100417.38
2023-02-19T23:48:06.456Z,100411.71
2023-02-19T23:50:39.618Z,100413.69
2023-02-19T23:53:11.711Z,100409.09
2023-02-19T23:55:43.506Z,100399.84
2023-02-19T23:58:16.091Z,100395.30
